createdAt,value
2018-09-09T00:01:23.408Z,88.20
2018-09-09T00:03:51.773Z,88.32
2018-09-09T00:06:20.156Z,88.25
2018-09-09T00:08:48.585Z,88.29
2018-09-09T00:11:16.991Z,88.86
2018-09-09T00:13:45.410Z,89.00
2018-09-09T00:16:13.795Z,88.10
2018-09-09T00:18:42.190Z,88.24
2018-09-09T00:21:10.617Z,88.58
2018-09-09T00:23:39.014Z,88.45
2018-09-09T00:26:07.442Z,87.32
2018-09-09T00:28:35.863Z,88.38
2018-09-09T00:31:04.240Z,87.75
2018-09-09T00:33:32.690Z,88.06
2018-09-09T00:36:01.097Z,87.99
2018-09-09T00:38:29.481Z,87.64
2018-09-09T00:40:57.957Z,88.17
2018-09-09T00:43:26.336Z,87.84
2018-09-09T00:45:54.752Z,88.68
2018-09-09T00:48:23.165Z,87.87
2018-09-09T00:50:56.931Z,87.77
2018-09-09T00:53:30.520Z,88.71
2018-09-09T00:55:59.002Z,89.15
2018-09-09T00:58:27.401Z,89.24
2018-09-09T01:01:01.147Z,88.97
2018-09-09T01:03:29.714Z,88.67
2018-09-09T01:05:58.116Z,89.15
2018-09-09T01:08:26.523Z,88.88
2018-09-09T01:10:54.962Z,89.55
2018-09-09T01:13:23.363Z,89.48
2018-09-09T01:15:51.729Z,89.16
2018-09-09T01:18:20.160Z,89.98
2018-09-09T01:20:48.568Z,89.07
2018-09-09T01:23:17.003Z,89.19
2018-09-09T01:25:45.415Z,88.70
2018-09-09T01:28:13.845Z,87.61
2018-09-09T01:30:42.316Z,87.87
2018-09-09T01:33:11.627Z,88.90
2018-09-09T01:35:40.097Z,88.72
2018-09-09T01:38:08.479Z,89.11
2018-09-09T01:40:36.887Z,88.28
2018-09-09T01:43:05.329Z,88.77
2018-09-09T01:45:33.735Z,88.92
2018-09-09T01:48:02.136Z,88.89
2018-09-09T01:50:30.504Z,89.04
2018-09-09T01:52:58.944Z,88.79
2018-09-09T01:55:27.305Z,88.85
2018-09-09T01:57:55.739Z,89.30
2018-09-09T02:00:24.108Z,88.77
2018-09-09T02:02:52.602Z,88.68
2018-09-09T02:05:21.010Z,87.97
2018-09-09T02:07:49.396Z,88.77
2018-09-09T02:10:17.791Z,88.26
2018-09-09T02:12:46.212Z,88.61
2018-09-09T02:15:14.617Z,89.01
2018-09-09T02:17:43.072Z,89.18
2018-09-09T02:20:11.560Z,89.33
2018-09-09T02:22:40.010Z,89.03
2018-09-09T02:25:08.412Z,89.11
2018-09-09T02:27:36.793Z,88.90
2018-09-09T02:30:06.020Z,88.96
2018-09-09T02:32:34.410Z,88.43
2018-09-09T02:35:02.812Z,89.11
2018-09-09T02:37:31.260Z,88.00
2018-09-09T02:39:59.668Z,88.32
2018-09-09T02:42:28.082Z,88.48
2018-09-09T02:44:56.564Z,88.88
2018-09-09T02:47:24.980Z,88.46
2018-09-09T02:49:53.384Z,89.17
2018-09-09T02:52:21.813Z,89.61
2018-09-09T02:54:50.216Z,89.35
2018-09-09T02:57:18.625Z,88.47
2018-09-09T02:59:47.028Z,87.93
2018-09-09T03:02:15.458Z,88.85
2018-09-09T03:04:43.859Z,88.86
2018-09-09T03:07:12.285Z,88.16
2018-09-09T03:09:40.677Z,88.18
2018-09-09T03:12:09.140Z,88.14
2018-09-09T03:14:37.528Z,88.69
2018-09-09T03:17:05.927Z,88.19
2018-09-09T03:19:34.347Z,88.23
2018-09-09T03:22:02.757Z,88.66
2018-09-09T03:24:31.145Z,88.24
2018-09-09T03:26:59.523Z,88.04
2018-09-09T03:29:27.897Z,87.73
2018-09-09T03:31:56.269Z,87.67
2018-09-09T03:34:24.702Z,86.85
2018-09-09T03:36:53.094Z,85.18
2018-09-09T03:39:21.544Z,85.52
2018-09-09T03:41:50.233Z,85.37
2018-09-09T03:44:18.645Z,86.84
2018-09-09T03:46:47.065Z,85.83
2018-09-09T03:49:15.489Z,86.22
2018-09-09T03:51:43.936Z,86.61
2018-09-09T03:54:12.340Z,86.23
2018-09-09T03:56:40.720Z,86.40
2018-09-09T03:59:09.116Z,86.67
2018-09-09T04:01:37.501Z,86.17
2018-09-09T04:04:05.953Z,86.69
2018-09-09T04:06:34.358Z,86.60
2018-09-09T04:09:02.844Z,86.70
2018-09-09T04:11:31.277Z,85.16
2018-09-09T04:13:59.677Z,86.50
2018-09-09T04:16:28.076Z,86.75
2018-09-09T04:18:56.516Z,85.33
2018-09-09T04:21:25.237Z,86.02
2018-09-09T04:23:53.634Z,85.80
2018-09-09T04:26:22.061Z,86.37
2018-09-09T04:28:50.536Z,85.71
2018-09-09T04:31:18.925Z,85.34
2018-09-09T04:33:47.876Z,84.91
2018-09-09T04:36:16.321Z,85.20
2018-09-09T04:38:44.772Z,83.35
2018-09-09T04:41:13.177Z,83.47
2018-09-09T04:43:41.592Z,83.94
2018-09-09T04:46:10.113Z,85.30
2018-09-09T04:48:38.484Z,84.78
2018-09-09T04:51:06.943Z,84.92
2018-09-09T04:53:35.352Z,84.07
2018-09-09T04:56:03.768Z,84.62
2018-09-09T04:58:32.148Z,84.79
2018-09-09T05:01:00.597Z,84.55
2018-09-09T05:03:28.949Z,84.87
2018-09-09T05:05:57.401Z,84.36
2018-09-09T05:08:25.773Z,85.30
2018-09-09T05:10:54.169Z,85.58
2018-09-09T05:13:22.620Z,85.85
2018-09-09T05:15:51.020Z,85.18
2018-09-09T05:18:19.411Z,84.40
2018-09-09T05:20:47.816Z,84.62
2018-09-09T05:23:16.244Z,85.49
2018-09-09T05:25:44.706Z,84.91
2018-09-09T05:28:13.075Z,85.02
2018-09-09T05:30:41.479Z,84.77
2018-09-09T05:33:09.893Z,85.17
2018-09-09T05:35:38.304Z,85.31
2018-09-09T05:38:06.725Z,84.75
2018-09-09T05:40:35.137Z,84.72
2018-09-09T05:43:03.577Z,84.75
2018-09-09T05:45:31.964Z,83.71
2018-09-09T05:48:00.373Z,84.08
2018-09-09T05:50:28.852Z,84.21
2018-09-09T05:52:57.289Z,83.82
2018-09-09T05:55:25.716Z,84.61
2018-09-09T05:57:54.187Z,84.30
2018-09-09T06:00:22.629Z,84.02
2018-09-09T06:02:51.089Z,84.91
2018-09-09T06:05:19.500Z,84.26
2018-09-09T06:07:47.984Z,84.63
2018-09-09T06:10:16.416Z,84.35
2018-09-09T06:12:44.820Z,84.59
2018-09-09T06:15:13.203Z,84.36
2018-09-09T06:17:42.019Z,84.87
2018-09-09T06:20:10.385Z,85.53
2018-09-09T06:22:38.899Z,84.78
2018-09-09T06:25:07.345Z,85.07
2018-09-09T06:27:35.844Z,84.69
2018-09-09T06:30:04.491Z,85.22
2018-09-09T06:32:32.900Z,84.71
2018-09-09T06:35:01.296Z,84.61
2018-09-09T06:37:29.668Z,83.46
2018-09-09T06:39:58.088Z,83.44
2018-09-09T06:42:26.465Z,83.54
2018-09-09T06:44:54.827Z,84.13
2018-09-09T06:47:23.298Z,83.88
2018-09-09T06:49:51.697Z,83.41
2018-09-09T06:52:20.148Z,84.12
2018-09-09T06:54:48.586Z,82.40
2018-09-09T06:57:17.096Z,81.83
2018-09-09T06:59:54.937Z,81.94
2018-09-09T07:02:23.396Z,82.66
2018-09-09T07:04:51.727Z,82.08
2018-09-09T07:07:20.344Z,81.79
2018-09-09T07:09:48.776Z,81.51
2018-09-09T07:12:17.175Z,81.81
2018-09-09T07:14:45.577Z,81.63
2018-09-09T07:17:14.267Z,81.90
2018-09-09T07:19:42.611Z,81.61
2018-09-09T07:22:11.036Z,82.58
2018-09-09T07:24:39.474Z,82.01
2018-09-09T07:27:07.989Z,81.63
2018-09-09T07:29:36.427Z,82.22
2018-09-09T07:32:04.880Z,81.95
2018-09-09T07:34:33.340Z,81.78
2018-09-09T07:37:01.889Z,81.57
2018-09-09T07:39:30.323Z,81.20
2018-09-09T07:41:58.780Z,81.38
2018-09-09T07:44:27.284Z,80.73
2018-09-09T07:46:55.750Z,81.05
2018-09-09T07:49:24.713Z,81.07
2018-09-09T07:51:53.144Z,81.17
2018-09-09T07:54:21.544Z,80.61
2018-09-09T07:56:49.948Z,81.09
2018-09-09T07:59:18.387Z,80.55
2018-09-09T08:01:46.784Z,80.88
2018-09-09T08:04:15.206Z,79.94
2018-09-09T08:06:43.596Z,80.09
2018-09-09T08:09:12.300Z,79.99
2018-09-09T08:11:41.011Z,79.87
2018-09-09T08:14:10.416Z,80.25
2018-09-09T08:16:38.848Z,79.51
2018-09-09T08:19:07.285Z,80.11
2018-09-09T08:21:35.681Z,80.27
2018-09-09T08:24:04.137Z,80.45
2018-09-09T08:26:32.597Z,79.46
2018-09-09T08:29:00.984Z,79.68
2018-09-09T08:31:29.397Z,79.20
2018-09-09T08:33:57.787Z,79.85
2018-09-09T08:36:26.169Z,79.05
2018-09-09T08:38:54.558Z,79.73
2018-09-09T08:41:22.967Z,79.11
2018-09-09T08:43:51.419Z,78.50
2018-09-09T08:46:19.915Z,78.63
2018-09-09T08:48:48.383Z,78.35
2018-09-09T08:51:16.824Z,78.33
2018-09-09T08:53:45.282Z,78.43
2018-09-09T08:56:13.965Z,78.04
2018-09-09T08:58:42.436Z,78.52
2018-09-09T09:01:11.802Z,78.82
2018-09-09T09:03:40.219Z,77.47
2018-09-09T09:06:08.625Z,78.24
2018-09-09T09:08:37.108Z,76.84
2018-09-09T09:11:05.573Z,77.65
2018-09-09T09:13:34.022Z,76.00
2018-09-09T09:16:02.469Z,76.80
2018-09-09T09:18:30.896Z,76.52
2018-09-09T09:20:59.418Z,74.53
2018-09-09T09:23:27.981Z,75.61
2018-09-09T09:25:56.388Z,75.07
2018-09-09T09:28:24.964Z,75.59
2018-09-09T09:30:53.978Z,76.14
2018-09-09T09:33:22.552Z,76.62
2018-09-09T09:35:53.203Z,76.48
2018-09-09T09:38:22.438Z,77.53
2018-09-09T09:40:51.379Z,76.03
2018-09-09T09:43:19.789Z,76.56
2018-09-09T09:45:48.240Z,76.57
2018-09-09T09:48:16.699Z,75.62
2018-09-09T09:50:45.139Z,74.92
2018-09-09T09:53:13.588Z,74.82
2018-09-09T09:55:42.012Z,74.88
2018-09-09T09:58:10.516Z,73.08
2018-09-09T10:00:44.119Z,74.16
2018-09-09T10:03:12.676Z,74.58
2018-09-09T10:05:41.143Z,75.13
2018-09-09T10:08:09.716Z,75.06
2018-09-09T10:10:38.153Z,75.23
2018-09-09T10:13:06.600Z,74.29
2018-09-09T10:15:35.089Z,74.17
2018-09-09T10:18:03.488Z,74.09
2018-09-09T10:20:31.956Z,70.68
2018-09-09T10:23:00.473Z,69.42
2018-09-09T10:25:28.905Z,69.33
2018-09-09T10:27:57.352Z,68.77
2018-09-09T10:30:25.818Z,69.01
2018-09-09T10:32:54.660Z,68.74
2018-09-09T10:35:23.166Z,68.24
2018-09-09T10:37:51.620Z,69.75
2018-09-09T10:40:20.053Z,69.54
2018-09-09T10:42:48.424Z,68.93
2018-09-09T10:45:16.882Z,68.45
2018-09-09T10:47:45.336Z,67.48
2018-09-09T10:50:13.747Z,66.96
2018-09-09T10:52:42.236Z,65.21
2018-09-09T10:55:10.960Z,63.53
2018-09-09T10:57:39.390Z,62.75
2018-09-09T11:00:08.103Z,63.58
2018-09-09T11:02:36.499Z,64.35
2018-09-09T11:05:04.963Z,62.82
2018-09-09T11:07:33.443Z,64.14
2018-09-09T11:10:02.488Z,64.67
2018-09-09T11:12:31.883Z,65.80
2018-09-09T11:15:02.370Z,64.67
2018-09-09T11:17:31.456Z,64.63
2018-09-09T11:20:00.003Z,62.06
2018-09-09T11:22:29.230Z,62.12
2018-09-09T11:24:57.743Z,62.74
2018-09-09T11:27:26.720Z,62.91
2018-09-09T11:29:55.181Z,62.21
2018-09-09T11:32:23.606Z,63.53
2018-09-09T11:34:52.025Z,62.74
2018-09-09T11:37:20.476Z,59.99
2018-09-09T11:39:48.852Z,60.70
2018-09-09T11:42:17.325Z,59.48
2018-09-09T11:44:45.789Z,59.21
2018-09-09T11:47:14.180Z,59.14
2018-09-09T11:49:43.316Z,61.67
2018-09-09T11:52:11.784Z,60.49
2018-09-09T11:54:40.835Z,60.86
2018-09-09T11:57:09.280Z,61.97
2018-09-09T11:59:37.694Z,62.63
2018-09-09T12:02:06.239Z,61.32
2018-09-09T12:04:34.722Z,62.34
2018-09-09T12:07:03.175Z,61.59
2018-09-09T12:09:32.209Z,60.04
2018-09-09T12:12:00.666Z,59.94
2018-09-09T12:14:29.105Z,59.86
2018-09-09T12:16:58.438Z,58.84
2018-09-09T12:19:26.842Z,58.39
2018-09-09T12:21:55.289Z,59.59
2018-09-09T12:24:23.707Z,60.90
2018-09-09T12:26:52.100Z,62.00
2018-09-09T12:29:20.599Z,61.67
2018-09-09T12:31:48.997Z,60.78
2018-09-09T12:34:17.446Z,62.19
2018-09-09T12:36:45.907Z,62.53
2018-09-09T12:39:14.339Z,61.08
2018-09-09T12:41:42.778Z,60.62
2018-09-09T12:44:16.597Z,61.00
2018-09-09T12:46:50.362Z,60.18
2018-09-09T12:49:18.822Z,61.21
2018-09-09T12:51:47.253Z,61.55
2018-09-09T12:54:15.700Z,60.67
2018-09-09T12:56:44.129Z,59.51
2018-09-09T12:59:12.590Z,59.86
2018-09-09T13:01:41.029Z,62.23
2018-09-09T13:04:09.461Z,60.39
2018-09-09T13:06:37.947Z,60.43
2018-09-09T13:09:07.724Z,58.62
2018-09-09T13:11:36.215Z,57.52
2018-09-09T13:14:04.769Z,58.12
2018-09-09T13:16:33.226Z,55.96
2018-09-09T13:19:01.679Z,56.45
2018-09-09T13:21:32.099Z,56.08
2018-09-09T13:24:01.554Z,56.23
2018-09-09T13:26:30.009Z,55.89
2018-09-09T13:28:58.564Z,57.43
2018-09-09T13:31:27.024Z,58.81
2018-09-09T13:33:55.617Z,56.86
2018-09-09T13:36:24.620Z,55.66
2018-09-09T13:38:53.159Z,56.77
2018-09-09T13:41:21.624Z,58.14
2018-09-09T13:43:51.486Z,57.82
2018-09-09T13:46:20.988Z,57.06
2018-09-09T13:48:49.496Z,59.32
2018-09-09T13:51:17.908Z,58.39
2018-09-09T13:53:46.416Z,58.30
2018-09-09T13:56:16.004Z,61.25
2018-09-09T13:58:44.747Z,62.01
2018-09-09T14:01:14.073Z,63.44
2018-09-09T14:03:42.620Z,63.34
2018-09-09T14:06:10.998Z,62.17
2018-09-09T14:08:39.533Z,61.42
2018-09-09T14:11:08.801Z,62.95
2018-09-09T14:13:37.498Z,61.42
2018-09-09T14:16:06.244Z,62.74
2018-09-09T14:18:35.809Z,63.25
2018-09-09T14:21:05.180Z,63.79
2018-09-09T14:23:33.615Z,63.65
2018-09-09T14:26:02.099Z,62.53
2018-09-09T14:28:30.748Z,63.08
2018-09-09T14:30:59.198Z,63.40
2018-09-09T14:33:27.641Z,63.85
2018-09-09T14:35:56.244Z,64.29
2018-09-09T14:38:24.681Z,65.28
2018-09-09T14:40:53.086Z,66.79
2018-09-09T14:43:21.611Z,66.28
2018-09-09T14:45:50.223Z,66.52
2018-09-09T14:48:18.669Z,66.51
2018-09-09T14:50:47.109Z,66.57
2018-09-09T14:53:15.629Z,65.99
2018-09-09T14:55:43.984Z,60.45
2018-09-09T14:58:12.428Z,63.59
2018-09-09T15:00:40.925Z,64.75
2018-09-09T15:03:09.454Z,65.87
2018-09-09T15:05:37.895Z,63.50
2018-09-09T15:08:06.399Z,64.42
2018-09-09T15:10:35.614Z,63.66
2018-09-09T15:13:04.318Z,62.81
2018-09-09T15:15:33.696Z,61.93
2018-09-09T15:18:02.596Z,61.11
2018-09-09T15:20:32.126Z,62.12
2018-09-09T15:23:00.680Z,62.89
2018-09-09T15:25:29.135Z,64.47
2018-09-09T15:27:57.539Z,63.73
2018-09-09T15:30:26.064Z,65.45
2018-09-09T15:32:54.552Z,65.12
2018-09-09T15:35:23.266Z,65.28
2018-09-09T15:37:56.133Z,65.14
2018-09-09T15:40:24.553Z,65.27
2018-09-09T15:42:53.121Z,61.35
2018-09-09T15:45:21.653Z,60.60
2018-09-09T15:47:50.168Z,61.81
2018-09-09T15:50:18.597Z,57.90
2018-09-09T15:52:47.107Z,56.34
2018-09-09T15:55:15.541Z,58.07
2018-09-09T15:57:45.030Z,58.32
2018-09-09T16:00:14.167Z,60.13
2018-09-09T16:02:42.898Z,62.66
2018-09-09T16:05:11.698Z,64.02
2018-09-09T16:07:40.115Z,65.71
2018-09-09T16:10:08.636Z,66.33
2018-09-09T16:12:37.678Z,63.84
2018-09-09T16:15:06.644Z,67.41
2018-09-09T16:17:35.137Z,68.67
2018-09-09T16:20:04.129Z,69.56
2018-09-09T16:22:32.672Z,69.08
2018-09-09T16:25:01.120Z,69.33
2018-09-09T16:27:29.609Z,70.00
2018-09-09T16:29:58.185Z,70.50
2018-09-09T16:32:26.649Z,71.34
2018-09-09T16:34:55.128Z,70.96
2018-09-09T16:37:23.710Z,71.60
2018-09-09T16:39:52.184Z,71.11
2018-09-09T16:42:20.620Z,72.55
2018-09-09T16:44:49.968Z,72.72
2018-09-09T16:47:18.575Z,72.32
2018-09-09T16:49:46.998Z,72.05
2018-09-09T16:52:15.418Z,72.87
2018-09-09T16:54:44.035Z,72.89
2018-09-09T16:57:12.500Z,73.62
2018-09-09T16:59:41.050Z,72.94
2018-09-09T17:02:09.714Z,73.64
2018-09-09T17:04:38.854Z,74.44
2018-09-09T17:07:07.460Z,72.73
2018-09-09T17:09:36.519Z,74.14
2018-09-09T17:12:04.986Z,73.94
2018-09-09T17:14:33.406Z,75.27
2018-09-09T17:17:01.828Z,73.62
2018-09-09T17:19:30.277Z,74.41
2018-09-09T17:21:58.652Z,75.05
2018-09-09T17:24:27.449Z,75.37
2018-09-09T17:26:56.523Z,75.72
2018-09-09T17:29:25.019Z,76.74
2018-09-09T17:31:53.458Z,77.26
2018-09-09T17:34:21.937Z,76.91
2018-09-09T17:36:51.241Z,77.30
2018-09-09T17:39:19.668Z,77.73
2018-09-09T17:41:48.096Z,78.10
2018-09-09T17:44:17.064Z,78.46
2018-09-09T17:46:46.589Z,78.60
2018-09-09T17:49:15.077Z,78.23
2018-09-09T17:51:44.145Z,78.93
2018-09-09T17:54:12.600Z,79.78
2018-09-09T17:56:41.020Z,79.33
2018-09-09T17:59:09.488Z,78.45
2018-09-09T18:01:38.252Z,79.39
2018-09-09T18:04:07.768Z,78.79
2018-09-09T18:06:36.239Z,78.29
2018-09-09T18:09:06.412Z,79.61
2018-09-09T18:11:34.948Z,77.27
2018-09-09T18:14:04.406Z,79.31
2018-09-09T18:16:32.873Z,78.95
2018-09-09T18:19:01.443Z,80.46
2018-09-09T18:21:29.932Z,79.62
2018-09-09T18:23:58.320Z,80.38
2018-09-09T18:26:26.774Z,79.99
2018-09-09T18:28:55.196Z,79.31
2018-09-09T18:31:23.629Z,80.35
2018-09-09T18:33:52.757Z,78.99
2018-09-09T18:36:21.165Z,79.89
2018-09-09T18:38:50.374Z,79.35
2018-09-09T18:41:18.790Z,80.94
2018-09-09T18:43:47.245Z,80.18
2018-09-09T18:46:15.723Z,80.73
2018-09-09T18:48:44.212Z,80.82
2018-09-09T18:51:12.655Z,81.19
2018-09-09T18:53:41.178Z,81.31
2018-09-09T18:56:09.622Z,81.64
2018-09-09T18:58:38.972Z,82.44
2018-09-09T19:01:07.418Z,81.40
2018-09-09T19:03:35.898Z,80.56
2018-09-09T19:06:04.597Z,80.52
2018-09-09T19:08:33.118Z,81.86
2018-09-09T19:11:01.579Z,82.03
2018-09-09T19:13:30.257Z,82.04
2018-09-09T19:16:00.880Z,81.44
2018-09-09T19:18:29.373Z,81.50
2018-09-09T19:20:58.357Z,81.72
2018-09-09T19:23:26.830Z,81.80
2018-09-09T19:25:55.280Z,82.09
2018-09-09T19:28:23.705Z,82.53
2018-09-09T19:30:52.258Z,81.76
2018-09-09T19:33:21.645Z,82.85
2018-09-09T19:35:50.097Z,82.32
2018-09-09T19:38:18.507Z,82.33
2018-09-09T19:40:46.936Z,82.67
2018-09-09T19:43:16.396Z,83.20
2018-09-09T19:45:44.965Z,82.88
2018-09-09T19:48:13.462Z,81.95
2018-09-09T19:50:42.559Z,83.23
2018-09-09T19:53:10.990Z,82.63
2018-09-09T19:55:40.093Z,82.65
2018-09-09T19:58:08.990Z,82.30
2018-09-09T20:00:37.438Z,82.98
2018-09-09T20:03:06.189Z,83.11
2018-09-09T20:05:34.651Z,82.86
2018-09-09T20:08:03.087Z,82.84
2018-09-09T20:10:31.547Z,82.49
2018-09-09T20:13:00.108Z,82.61
2018-09-09T20:15:28.629Z,82.49
2018-09-09T20:17:57.070Z,83.28
2018-09-09T20:20:26.560Z,83.09
2018-09-09T20:22:55.372Z,82.68
2018-09-09T20:25:23.828Z,82.12
2018-09-09T20:27:52.224Z,83.58
2018-09-09T20:30:20.692Z,83.16
2018-09-09T20:32:49.164Z,83.94
2018-09-09T20:35:17.766Z,83.50
2018-09-09T20:37:46.232Z,83.56
2018-09-09T20:40:14.669Z,83.74
2018-09-09T20:42:43.095Z,83.53
2018-09-09T20:45:11.551Z,83.83
2018-09-09T20:47:40.041Z,82.61
2018-09-09T20:50:08.505Z,83.58
2018-09-09T20:52:37.836Z,83.33
2018-09-09T20:55:06.450Z,83.82
2018-09-09T20:57:34.869Z,83.79
2018-09-09T21:00:03.347Z,82.75
2018-09-09T21:02:33.056Z,83.15
2018-09-09T21:05:01.591Z,83.78
2018-09-09T21:07:31.134Z,84.57
2018-09-09T21:09:59.562Z,84.70
2018-09-09T21:12:28.063Z,83.33
2018-09-09T21:14:56.542Z,83.32
2018-09-09T21:17:25.114Z,84.15
2018-09-09T21:19:54.500Z,83.82
2018-09-09T21:22:23.004Z,84.00
2018-09-09T21:24:51.480Z,83.04
2018-09-09T21:27:19.976Z,83.64
2018-09-09T21:29:48.395Z,83.97
2018-09-09T21:32:16.818Z,83.15
2018-09-09T21:34:45.253Z,83.41
2018-09-09T21:37:13.692Z,82.92
2018-09-09T21:39:42.139Z,83.50
2018-09-09T21:42:10.672Z,83.74
2018-09-09T21:44:39.069Z,83.33
2018-09-09T21:47:07.582Z,83.02
2018-09-09T21:49:36.035Z,83.11
2018-09-09T21:52:04.515Z,83.35
2018-09-09T21:54:33.271Z,83.49
2018-09-09T21:57:01.756Z,83.30
2018-09-09T21:59:30.196Z,83.18
2018-09-09T22:02:03.242Z,84.50
2018-09-09T22:04:31.981Z,83.27
2018-09-09T22:07:00.965Z,83.43
2018-09-09T22:09:29.433Z,83.36
2018-09-09T22:11:58.811Z,84.12
2018-09-09T22:14:27.344Z,84.17
2018-09-09T22:16:55.801Z,84.69
2018-09-09T22:19:24.578Z,83.95
2018-09-09T22:21:53.077Z,83.11
2018-09-09T22:24:21.942Z,84.13
2018-09-09T22:26:50.561Z,83.49
2018-09-09T22:29:19.145Z,84.31
2018-09-09T22:31:47.513Z,84.02
2018-09-09T22:34:16.256Z,83.93
2018-09-09T22:36:44.704Z,83.85
2018-09-09T22:39:13.112Z,84.10
2018-09-09T22:41:41.499Z,84.78
2018-09-09T22:44:11.700Z,83.95
2018-09-09T22:46:40.337Z,84.13
2018-09-09T22:49:08.827Z,84.68
2018-09-09T22:51:37.318Z,84.67
2018-09-09T22:54:05.872Z,84.22
2018-09-09T22:56:34.450Z,84.57
2018-09-09T22:59:02.960Z,83.42
2018-09-09T23:01:31.437Z,84.26
2018-09-09T23:03:59.918Z,84.57
2018-09-09T23:06:28.373Z,83.75
2018-09-09T23:08:56.868Z,84.15
2018-09-09T23:11:25.235Z,83.91
2018-09-09T23:13:55.696Z,83.24
2018-09-09T23:16:24.518Z,83.13
2018-09-09T23:18:53.002Z,83.42
2018-09-09T23:21:21.421Z,83.99
2018-09-09T23:23:49.958Z,83.11
2018-09-09T23:26:22.358Z,83.73
2018-09-09T23:28:50.847Z,83.58
2018-09-09T23:31:19.327Z,82.60
2018-09-09T23:33:56.511Z,82.87
2018-09-09T23:36:26.854Z,83.79
2018-09-09T23:38:58.757Z,83.29
2018-09-09T23:41:27.241Z,83.19
2018-09-09T23:43:57.477Z,83.62
2018-09-09T23:46:25.932Z,82.45
2018-09-09T23:48:54.305Z,83.83
2018-09-09T23:51:25.492Z,83.03
2018-09-09T23:53:53.884Z,83.32
2018-09-09T23:56:22.355Z,83.28
2018-09-09T23:58:50.810Z,83.64
